sensor_id;sensor_type;location;lat;lon;timestamp;P1;durP1;ratioP1;P2;durP2;ratioP2
18931;SDS011;9598;50.954;3.112;2023-06-24T00:01:55;6.32;;;5.40;;
18931;SDS011;9598;50.954;3.112;2023-06-24T00:06:57;7.75;;;5.95;;
18931;SDS011;9598;50.954;3.112;2023-06-24T00:12:01;6.90;;;6.32;;
18931;SDS011;9598;50.954;3.112;2023-06-24T00:17:05;6.68;;;6.07;;
18931;SDS011;9598;50.954;3.112;2023-06-24T00:22:08;6.97;;;6.38;;
18931;SDS011;9598;50.954;3.112;2023-06-24T00:27:10;7.88;;;7.07;;
18931;SDS011;9598;50.954;3.112;2023-06-24T00:32:14;7.65;;;7.05;;
18931;SDS011;9598;50.954;3.112;2023-06-24T00:37:16;7.07;;;6.47;;
18931;SDS011;9598;50.954;3.112;2023-06-24T00:42:18;8.43;;;7.72;;
18931;SDS011;9598;50.954;3.112;2023-06-24T00:47:22;7.95;;;7.25;;
18931;SDS011;9598;50.954;3.112;2023-06-24T00:52:25;8.00;;;7.05;;
18931;SDS011;9598;50.954;3.112;2023-06-24T00:57:28;8.63;;;7.82;;
18931;SDS011;9598;50.954;3.112;2023-06-24T01:02:32;7.97;;;7.28;;
18931;SDS011;9598;50.954;3.112;2023-06-24T01:07:38;7.38;;;6.75;;
18931;SDS011;9598;50.954;3.112;2023-06-24T01:12:40;8.38;;;7.55;;
18931;SDS011;9598;50.954;3.112;2023-06-24T01:17:47;8.25;;;7.50;;
18931;SDS011;9598;50.954;3.112;2023-06-24T01:23:03;8.68;;;7.90;;
18931;SDS011;9598;50.954;3.112;2023-06-24T01:28:24;8.68;;;7.90;;
18931;SDS011;9598;50.954;3.112;2023-06-24T01:33:42;8.98;;;8.05;;
18931;SDS011;9598;50.954;3.112;2023-06-24T01:38:51;8.68;;;7.88;;
18931;SDS011;9598;50.954;3.112;2023-06-24T01:43:57;8.25;;;7.43;;
18931;SDS011;9598;50.954;3.112;2023-06-24T01:49:02;8.43;;;7.63;;
18931;SDS011;9598;50.954;3.112;2023-06-24T01:54:15;8.73;;;7.93;;
18931;SDS011;9598;50.954;3.112;2023-06-24T01:59:20;9.23;;;8.43;;
18931;SDS011;9598;50.954;3.112;2023-06-24T02:04:25;9.70;;;8.73;;
18931;SDS011;9598;50.954;3.112;2023-06-24T02:09:31;9.15;;;8.25;;
18931;SDS011;9598;50.954;3.112;2023-06-24T02:14:34;10.18;;;9.05;;
18931;SDS011;9598;50.954;3.112;2023-06-24T02:19:39;10.30;;;9.13;;
18931;SDS011;9598;50.954;3.112;2023-06-24T02:24:42;9.77;;;8.93;;
18931;SDS011;9598;50.954;3.112;2023-06-24T02:29:45;10.13;;;9.18;;
18931;SDS011;9598;50.954;3.112;2023-06-24T02:34:49;10.25;;;9.25;;
18931;SDS011;9598;50.954;3.112;2023-06-24T02:39:51;9.70;;;8.80;;
18931;SDS011;9598;50.954;3.112;2023-06-24T02:44:53;10.20;;;8.77;;
18931;SDS011;9598;50.954;3.112;2023-06-24T02:49:56;10.65;;;9.65;;
18931;SDS011;9598;50.954;3.112;2023-06-24T02:54:59;10.23;;;9.30;;
18931;SDS011;9598;50.954;3.112;2023-06-24T03:00:01;9.82;;;8.82;;
18931;SDS011;9598;50.954;3.112;2023-06-24T03:05:27;10.93;;;9.63;;
18931;SDS011;9598;50.954;3.112;2023-06-24T03:10:30;11.65;;;10.57;;
18931;SDS011;9598;50.954;3.112;2023-06-24T03:15:32;11.20;;;10.10;;
18931;SDS011;9598;50.954;3.112;2023-06-24T03:20:38;10.90;;;9.85;;
18931;SDS011;9598;50.954;3.112;2023-06-24T03:25:44;11.40;;;10.25;;
18931;SDS011;9598;50.954;3.112;2023-06-24T03:30:46;11.57;;;10.35;;
18931;SDS011;9598;50.954;3.112;2023-06-24T03:35:54;11.73;;;10.60;;
18931;SDS011;9598;50.954;3.112;2023-06-24T03:41:01;10.90;;;9.90;;
18931;SDS011;9598;50.954;3.112;2023-06-24T03:46:03;13.88;;;10.63;;
18931;SDS011;9598;50.954;3.112;2023-06-24T03:51:07;12.07;;;10.95;;
18931;SDS011;9598;50.954;3.112;2023-06-24T03:56:11;11.55;;;10.38;;
18931;SDS011;9598;50.954;3.112;2023-06-24T04:01:13;11.93;;;10.75;;
18931;SDS011;9598;50.954;3.112;2023-06-24T04:06:16;12.27;;;11.00;;
18931;SDS011;9598;50.954;3.112;2023-06-24T04:11:19;11.27;;;10.27;;
18931;SDS011;9598;50.954;3.112;2023-06-24T04:16:21;12.00;;;10.80;;
18931;SDS011;9598;50.954;3.112;2023-06-24T04:21:25;12.38;;;11.18;;
18931;SDS011;9598;50.954;3.112;2023-06-24T04:26:27;13.18;;;11.77;;
18931;SDS011;9598;50.954;3.112;2023-06-24T04:31:29;12.38;;;11.27;;
18931;SDS011;9598;50.954;3.112;2023-06-24T04:36:32;12.35;;;11.05;;
18931;SDS011;9598;50.954;3.112;2023-06-24T04:41:36;12.90;;;11.60;;
18931;SDS011;9598;50.954;3.112;2023-06-24T04:46:38;13.30;;;12.00;;
18931;SDS011;9598;50.954;3.112;2023-06-24T04:51:42;13.93;;;12.45;;
18931;SDS011;9598;50.954;3.112;2023-06-24T04:56:44;15.93;;;12.65;;
18931;SDS011;9598;50.954;3.112;2023-06-24T05:01:48;14.00;;;12.57;;
18931;SDS011;9598;50.954;3.112;2023-06-24T05:06:52;14.25;;;12.75;;
18931;SDS011;9598;50.954;3.112;2023-06-24T05:11:54;13.95;;;12.55;;
18931;SDS011;9598;50.954;3.112;2023-06-24T05:16:56;15.65;;;14.02;;
18931;SDS011;9598;50.954;3.112;2023-06-24T05:21:59;15.27;;;13.77;;
18931;SDS011;9598;50.954;3.112;2023-06-24T05:27:03;16.20;;;14.60;;
18931;SDS011;9598;50.954;3.112;2023-06-24T05:32:06;15.85;;;13.52;;
18931;SDS011;9598;50.954;3.112;2023-06-24T05:37:10;15.65;;;13.85;;
18931;SDS011;9598;50.954;3.112;2023-06-24T05:42:12;16.25;;;14.55;;
18931;SDS011;9598;50.954;3.112;2023-06-24T05:47:14;15.48;;;13.88;;
18931;SDS011;9598;50.954;3.112;2023-06-24T05:52:17;16.25;;;14.48;;
18931;SDS011;9598;50.954;3.112;2023-06-24T05:57:19;16.90;;;14.88;;
18931;SDS011;9598;50.954;3.112;2023-06-24T06:02:22;17.20;;;15.40;;
18931;SDS011;9598;50.954;3.112;2023-06-24T06:07:25;18.48;;;16.65;;
18931;SDS011;9598;50.954;3.112;2023-06-24T06:12:27;19.85;;;17.77;;
18931;SDS011;9598;50.954;3.112;2023-06-24T06:17:29;20.00;;;17.45;;
18931;SDS011;9598;50.954;3.112;2023-06-24T06:22:33;18.60;;;16.70;;
18931;SDS011;9598;50.954;3.112;2023-06-24T06:27:38;17.98;;;16.17;;
18931;SDS011;9598;50.954;3.112;2023-06-24T06:32:40;18.55;;;16.65;;
18931;SDS011;9598;50.954;3.112;2023-06-24T06:37:43;18.58;;;16.65;;
18931;SDS011;9598;50.954;3.112;2023-06-24T06:42:52;18.92;;;16.92;;
18931;SDS011;9598;50.954;3.112;2023-06-24T06:47:55;18.27;;;16.38;;
18931;SDS011;9598;50.954;3.112;2023-06-24T06:52:58;17.23;;;15.50;;
18931;SDS011;9598;50.954;3.112;2023-06-24T06:58:00;18.88;;;16.70;;
18931;SDS011;9598;50.954;3.112;2023-06-24T07:03:02;18.60;;;16.85;;
18931;SDS011;9598;50.954;3.112;2023-06-24T07:08:06;17.48;;;15.63;;
18931;SDS011;9598;50.954;3.112;2023-06-24T07:13:08;18.13;;;16.23;;
18931;SDS011;9598;50.954;3.112;2023-06-24T07:18:10;19.75;;;17.75;;
18931;SDS011;9598;50.954;3.112;2023-06-24T07:23:13;18.35;;;16.55;;
18931;SDS011;9598;50.954;3.112;2023-06-24T07:28:16;20.95;;;18.30;;
18931;SDS011;9598;50.954;3.112;2023-06-24T07:33:18;19.45;;;17.60;;
18931;SDS011;9598;50.954;3.112;2023-06-24T07:38:21;18.30;;;16.40;;
18931;SDS011;9598;50.954;3.112;2023-06-24T07:43:24;17.77;;;16.00;;
18931;SDS011;9598;50.954;3.112;2023-06-24T07:48:26;19.38;;;17.38;;
18931;SDS011;9598;50.954;3.112;2023-06-24T07:53:29;19.92;;;17.92;;
18931;SDS011;9598;50.954;3.112;2023-06-24T07:58:33;18.25;;;16.63;;
18931;SDS011;9598;50.954;3.112;2023-06-24T08:03:38;19.98;;;18.13;;
18931;SDS011;9598;50.954;3.112;2023-06-24T08:08:41;18.45;;;16.45;;
18931;SDS011;9598;50.954;3.112;2023-06-24T08:13:43;17.80;;;16.02;;
18931;SDS011;9598;50.954;3.112;2023-06-24T08:18:45;19.73;;;17.30;;
18931;SDS011;9598;50.954;3.112;2023-06-24T08:23:49;17.67;;;15.85;;
18931;SDS011;9598;50.954;3.112;2023-06-24T08:28:52;17.50;;;16.00;;
18931;SDS011;9598;50.954;3.112;2023-06-24T08:33:54;18.70;;;16.90;;
18931;SDS011;9598;50.954;3.112;2023-06-24T08:38:57;19.60;;;17.52;;
18931;SDS011;9598;50.954;3.112;2023-06-24T08:43:59;19.17;;;17.27;;
18931;SDS011;9598;50.954;3.112;2023-06-24T08:49:02;19.73;;;17.73;;
18931;SDS011;9598;50.954;3.112;2023-06-24T08:54:14;17.23;;;15.52;;
18931;SDS011;9598;50.954;3.112;2023-06-24T08:59:16;18.52;;;16.60;;
18931;SDS011;9598;50.954;3.112;2023-06-24T09:04:20;18.85;;;16.88;;
18931;SDS011;9598;50.954;3.112;2023-06-24T09:09:24;20.00;;;18.02;;
18931;SDS011;9598;50.954;3.112;2023-06-24T09:14:28;18.65;;;16.88;;
18931;SDS011;9598;50.954;3.112;2023-06-24T09:19:31;18.50;;;16.70;;
18931;SDS011;9598;50.954;3.112;2023-06-24T09:24:37;18.33;;;16.58;;
18931;SDS011;9598;50.954;3.112;2023-06-24T09:29:40;17.02;;;15.43;;
18931;SDS011;9598;50.954;3.112;2023-06-24T09:34:43;14.05;;;12.85;;
18931;SDS011;9598;50.954;3.112;2023-06-24T09:39:47;14.00;;;12.68;;
18931;SDS011;9598;50.954;3.112;2023-06-24T09:44:52;14.13;;;12.73;;
18931;SDS011;9598;50.954;3.112;2023-06-24T09:49:55;14.45;;;12.95;;
18931;SDS011;9598;50.954;3.112;2023-06-24T09:54:58;11.82;;;10.65;;
18931;SDS011;9598;50.954;3.112;2023-06-24T10:00:03;10.25;;;9.32;;
18931;SDS011;9598;50.954;3.112;2023-06-24T10:05:07;9.02;;;8.25;;
18931;SDS011;9598;50.954;3.112;2023-06-24T10:10:11;9.80;;;8.80;;
18931;SDS011;9598;50.954;3.112;2023-06-24T10:15:13;11.38;;;10.18;;
18931;SDS011;9598;50.954;3.112;2023-06-24T10:20:23;10.95;;;9.80;;
18931;SDS011;9598;50.954;3.112;2023-06-24T10:25:28;9.68;;;8.82;;
18931;SDS011;9598;50.954;3.112;2023-06-24T10:30:37;11.13;;;9.52;;
18931;SDS011;9598;50.954;3.112;2023-06-24T10:35:41;12.02;;;10.82;;
18931;SDS011;9598;50.954;3.112;2023-06-24T10:40:45;14.93;;;11.63;;
18931;SDS011;9598;50.954;3.112;2023-06-24T10:45:51;12.93;;;11.73;;
18931;SDS011;9598;50.954;3.112;2023-06-24T10:50:53;12.90;;;11.65;;
18931;SDS011;9598;50.954;3.112;2023-06-24T10:55:58;13.55;;;12.20;;
18931;SDS011;9598;50.954;3.112;2023-06-24T11:01:06;13.57;;;12.27;;
18931;SDS011;9598;50.954;3.112;2023-06-24T11:06:10;11.30;;;9.80;;
18931;SDS011;9598;50.954;3.112;2023-06-24T11:11:23;13.75;;;12.50;;
18931;SDS011;9598;50.954;3.112;2023-06-24T11:16:25;14.15;;;12.85;;
18931;SDS011;9598;50.954;3.112;2023-06-24T11:21:28;12.55;;;11.45;;
18931;SDS011;9598;50.954;3.112;2023-06-24T11:26:33;11.45;;;10.43;;
18931;SDS011;9598;50.954;3.112;2023-06-24T11:31:35;9.15;;;8.23;;
18931;SDS011;9598;50.954;3.112;2023-06-24T11:36:37;8.38;;;7.57;;
18931;SDS011;9598;50.954;3.112;2023-06-24T11:41:41;8.52;;;7.72;;
18931;SDS011;9598;50.954;3.112;2023-06-24T11:46:43;7.47;;;6.72;;
18931;SDS011;9598;50.954;3.112;2023-06-24T11:51:46;8.25;;;7.47;;
18931;SDS011;9598;50.954;3.112;2023-06-24T11:56:51;7.82;;;7.22;;
18931;SDS011;9598;50.954;3.112;2023-06-24T12:01:53;7.03;;;6.43;;
18931;SDS011;9598;50.954;3.112;2023-06-24T12:06:56;6.18;;;5.68;;
18931;SDS011;9598;50.954;3.112;2023-06-24T12:11:59;4.57;;;4.20;;
18931;SDS011;9598;50.954;3.112;2023-06-24T12:17:01;4.88;;;4.47;;
18931;SDS011;9598;50.954;3.112;2023-06-24T12:22:04;4.22;;;3.88;;
18931;SDS011;9598;50.954;3.112;2023-06-24T12:27:07;3.92;;;3.58;;
18931;SDS011;9598;50.954;3.112;2023-06-24T12:32:09;3.55;;;3.25;;
18931;SDS011;9598;50.954;3.112;2023-06-24T12:37:12;3.55;;;3.25;;
18931;SDS011;9598;50.954;3.112;2023-06-24T12:42:16;3.50;;;3.30;;
18931;SDS011;9598;50.954;3.112;2023-06-24T12:47:18;4.28;;;3.88;;
18931;SDS011;9598;50.954;3.112;2023-06-24T12:52:20;3.75;;;3.45;;
18931;SDS011;9598;50.954;3.112;2023-06-24T12:57:23;3.58;;;3.17;;
18931;SDS011;9598;50.954;3.112;2023-06-24T13:02:25;4.25;;;3.95;;
18931;SDS011;9598;50.954;3.112;2023-06-24T13:07:27;3.25;;;3.00;;
18931;SDS011;9598;50.954;3.112;2023-06-24T13:12:31;2.80;;;2.50;;
18931;SDS011;9598;50.954;3.112;2023-06-24T13:17:33;2.72;;;2.53;;
18931;SDS011;9598;50.954;3.112;2023-06-24T13:22:35;3.13;;;2.92;;
18931;SDS011;9598;50.954;3.112;2023-06-24T13:27:38;3.53;;;3.22;;
18931;SDS011;9598;50.954;3.112;2023-06-24T13:32:40;3.25;;;2.95;;
18931;SDS011;9598;50.954;3.112;2023-06-24T13:37:42;2.72;;;2.53;;
18931;SDS011;9598;50.954;3.112;2023-06-24T13:42:46;2.90;;;2.70;;
18931;SDS011;9598;50.954;3.112;2023-06-24T13:47:48;2.88;;;2.65;;
18931;SDS011;9598;50.954;3.112;2023-06-24T13:52:50;3.50;;;2.53;;
18931;SDS011;9598;50.954;3.112;2023-06-24T13:57:54;3.05;;;2.60;;
18931;SDS011;9598;50.954;3.112;2023-06-24T14:02:56;3.50;;;3.00;;
18931;SDS011;9598;50.954;3.112;2023-06-24T14:07:58;2.40;;;2.20;;
18931;SDS011;9598;50.954;3.112;2023-06-24T14:13:02;3.10;;;2.90;;
18931;SDS011;9598;50.954;3.112;2023-06-24T14:18:05;2.92;;;2.72;;
18931;SDS011;9598;50.954;3.112;2023-06-24T14:23:07;3.08;;;2.88;;
18931;SDS011;9598;50.954;3.112;2023-06-24T14:28:10;3.25;;;2.90;;
18931;SDS011;9598;50.954;3.112;2023-06-24T14:33:13;3.20;;;3.00;;
18931;SDS011;9598;50.954;3.112;2023-06-24T14:38:15;2.95;;;2.70;;
18931;SDS011;9598;50.954;3.112;2023-06-24T14:43:18;3.50;;;3.15;;
18931;SDS011;9598;50.954;3.112;2023-06-24T14:48:20;3.33;;;3.03;;
18931;SDS011;9598;50.954;3.112;2023-06-24T14:53:22;2.83;;;2.60;;
18931;SDS011;9598;50.954;3.112;2023-06-24T14:58:26;5.30;;;3.22;;
18931;SDS011;9598;50.954;3.112;2023-06-24T15:03:28;2.70;;;2.50;;
18931;SDS011;9598;50.954;3.112;2023-06-24T15:08:30;3.20;;;2.70;;
18931;SDS011;9598;50.954;3.112;2023-06-24T15:13:33;2.90;;;2.70;;
18931;SDS011;9598;50.954;3.112;2023-06-24T15:18:39;3.63;;;3.35;;
18931;SDS011;9598;50.954;3.112;2023-06-24T15:23:46;3.20;;;2.90;;
18931;SDS011;9598;50.954;3.112;2023-06-24T15:28:50;2.80;;;2.60;;
18931;SDS011;9598;50.954;3.112;2023-06-24T15:33:53;2.65;;;2.45;;
18931;SDS011;9598;50.954;3.112;2023-06-24T15:38:55;2.67;;;2.47;;
18931;SDS011;9598;50.954;3.112;2023-06-24T15:43:59;2.95;;;2.65;;
18931;SDS011;9598;50.954;3.112;2023-06-24T15:49:01;3.08;;;2.75;;
18931;SDS011;9598;50.954;3.112;2023-06-24T15:54:03;3.33;;;3.13;;
18931;SDS011;9598;50.954;3.112;2023-06-24T15:59:06;2.92;;;2.72;;
18931;SDS011;9598;50.954;3.112;2023-06-24T16:04:09;4.78;;;3.47;;
18931;SDS011;9598;50.954;3.112;2023-06-24T16:09:11;3.72;;;3.42;;
18931;SDS011;9598;50.954;3.112;2023-06-24T16:14:15;3.97;;;3.63;;
18931;SDS011;9598;50.954;3.112;2023-06-24T16:19:17;3.63;;;3.10;;
18931;SDS011;9598;50.954;3.112;2023-06-24T16:24:19;3.50;;;3.20;;
18931;SDS011;9598;50.954;3.112;2023-06-24T16:29:23;5.80;;;5.18;;
18931;SDS011;9598;50.954;3.112;2023-06-24T16:34:25;9.38;;;7.90;;
18931;SDS011;9598;50.954;3.112;2023-06-24T16:39:28;9.43;;;8.57;;
18931;SDS011;9598;50.954;3.112;2023-06-24T16:44:31;8.35;;;7.55;;
18931;SDS011;9598;50.954;3.112;2023-06-24T16:49:37;8.38;;;7.50;;
18931;SDS011;9598;50.954;3.112;2023-06-24T16:54:39;8.13;;;7.43;;
18931;SDS011;9598;50.954;3.112;2023-06-24T16:59:42;8.25;;;7.30;;
18931;SDS011;9598;50.954;3.112;2023-06-24T17:04:44;8.10;;;7.40;;
18931;SDS011;9598;50.954;3.112;2023-06-24T17:09:46;7.55;;;6.93;;
18931;SDS011;9598;50.954;3.112;2023-06-24T17:14:50;7.25;;;6.57;;
18931;SDS011;9598;50.954;3.112;2023-06-24T17:19:53;8.35;;;7.35;;
18931;SDS011;9598;50.954;3.112;2023-06-24T17:24:55;8.30;;;7.50;;
18931;SDS011;9598;50.954;3.112;2023-06-24T17:29:58;7.63;;;6.18;;
18931;SDS011;9598;50.954;3.112;2023-06-24T17:35:00;7.43;;;6.78;;
18931;SDS011;9598;50.954;3.112;2023-06-24T17:40:02;8.13;;;7.28;;
18931;SDS011;9598;50.954;3.112;2023-06-24T17:45:07;10.50;;;6.63;;
18931;SDS011;9598;50.954;3.112;2023-06-24T17:50:10;6.65;;;6.05;;
18931;SDS011;9598;50.954;3.112;2023-06-24T17:55:13;6.93;;;6.22;;
18931;SDS011;9598;50.954;3.112;2023-06-24T18:00:16;7.90;;;6.57;;
18931;SDS011;9598;50.954;3.112;2023-06-24T18:05:18;8.10;;;6.07;;
18931;SDS011;9598;50.954;3.112;2023-06-24T18:10:20;7.20;;;6.50;;
18931;SDS011;9598;50.954;3.112;2023-06-24T18:15:24;6.78;;;6.18;;
18931;SDS011;9598;50.954;3.112;2023-06-24T18:20:26;8.00;;;5.72;;
18931;SDS011;9598;50.954;3.112;2023-06-24T18:25:28;6.32;;;5.72;;
18931;SDS011;9598;50.954;3.112;2023-06-24T18:30:32;7.10;;;6.28;;
18931;SDS011;9598;50.954;3.112;2023-06-24T18:35:34;6.20;;;5.53;;
18931;SDS011;9598;50.954;3.112;2023-06-24T18:40:36;8.15;;;7.35;;
18931;SDS011;9598;50.954;3.112;2023-06-24T18:45:39;11.27;;;8.18;;
18931;SDS011;9598;50.954;3.112;2023-06-24T18:50:41;9.13;;;6.53;;
18931;SDS011;9598;50.954;3.112;2023-06-24T18:55:43;6.10;;;5.50;;
18931;SDS011;9598;50.954;3.112;2023-06-24T19:00:47;6.38;;;5.82;;
18931;SDS011;9598;50.954;3.112;2023-06-24T19:05:49;6.35;;;5.05;;
18931;SDS011;9598;50.954;3.112;2023-06-24T19:10:51;5.57;;;5.18;;
18931;SDS011;9598;50.954;3.112;2023-06-24T19:15:55;6.80;;;5.45;;
18931;SDS011;9598;50.954;3.112;2023-06-24T19:20:57;6.10;;;5.50;;
18931;SDS011;9598;50.954;3.112;2023-06-24T19:25:59;5.88;;;5.30;;
18931;SDS011;9598;50.954;3.112;2023-06-24T19:31:03;5.53;;;5.03;;
18931;SDS011;9598;50.954;3.112;2023-06-24T19:36:05;5.60;;;5.10;;
18931;SDS011;9598;50.954;3.112;2023-06-24T19:41:07;6.13;;;5.53;;
18931;SDS011;9598;50.954;3.112;2023-06-24T19:46:10;12.68;;;11.45;;
18931;SDS011;9598;50.954;3.112;2023-06-24T19:51:12;28.35;;;25.63;;
18931;SDS011;9598;50.954;3.112;2023-06-24T19:56:14;14.15;;;12.95;;
18931;SDS011;9598;50.954;3.112;2023-06-24T20:01:18;12.45;;;11.27;;
18931;SDS011;9598;50.954;3.112;2023-06-24T20:06:20;9.45;;;8.55;;
18931;SDS011;9598;50.954;3.112;2023-06-24T20:11:22;15.48;;;12.77;;
18931;SDS011;9598;50.954;3.112;2023-06-24T20:16:25;8.73;;;7.93;;
18931;SDS011;9598;50.954;3.112;2023-06-24T20:21:27;7.63;;;6.80;;
18931;SDS011;9598;50.954;3.112;2023-06-24T20:26:30;12.20;;;11.00;;
18931;SDS011;9598;50.954;3.112;2023-06-24T20:31:33;7.70;;;6.88;;
18931;SDS011;9598;50.954;3.112;2023-06-24T20:36:35;6.30;;;5.72;;
18931;SDS011;9598;50.954;3.112;2023-06-24T20:41:37;7.25;;;6.45;;
18931;SDS011;9598;50.954;3.112;2023-06-24T20:46:40;8.30;;;7.50;;
18931;SDS011;9598;50.954;3.112;2023-06-24T20:51:43;10.05;;;8.60;;
18931;SDS011;9598;50.954;3.112;2023-06-24T20:56:47;9.60;;;8.70;;
18931;SDS011;9598;50.954;3.112;2023-06-24T21:01:51;13.80;;;12.43;;
18931;SDS011;9598;50.954;3.112;2023-06-24T21:06:53;13.70;;;12.10;;
18931;SDS011;9598;50.954;3.112;2023-06-24T21:11:55;13.57;;;12.30;;
18931;SDS011;9598;50.954;3.112;2023-06-24T21:16:58;12.73;;;11.57;;
18931;SDS011;9598;50.954;3.112;2023-06-24T21:22:00;11.82;;;10.75;;
18931;SDS011;9598;50.954;3.112;2023-06-24T21:27:03;11.88;;;10.88;;
18931;SDS011;9598;50.954;3.112;2023-06-24T21:32:07;11.93;;;10.88;;
18931;SDS011;9598;50.954;3.112;2023-06-24T21:37:09;12.63;;;11.43;;
18931;SDS011;9598;50.954;3.112;2023-06-24T21:42:11;12.23;;;11.13;;
18931;SDS011;9598;50.954;3.112;2023-06-24T21:47:14;12.40;;;11.20;;
18931;SDS011;9598;50.954;3.112;2023-06-24T21:52:16;11.88;;;10.75;;
18931;SDS011;9598;50.954;3.112;2023-06-24T21:57:19;11.60;;;10.50;;
18931;SDS011;9598;50.954;3.112;2023-06-24T22:02:22;12.18;;;10.98;;
18931;SDS011;9598;50.954;3.112;2023-06-24T22:07:24;13.45;;;12.15;;
18931;SDS011;9598;50.954;3.112;2023-06-24T22:12:26;12.82;;;11.73;;
18931;SDS011;9598;50.954;3.112;2023-06-24T22:17:29;13.13;;;11.98;;
18931;SDS011;9598;50.954;3.112;2023-06-24T22:22:32;14.13;;;12.20;;
18931;SDS011;9598;50.954;3.112;2023-06-24T22:27:34;12.77;;;11.60;;
18931;SDS011;9598;50.954;3.112;2023-06-24T22:32:37;12.18;;;11.10;;
18931;SDS011;9598;50.954;3.112;2023-06-24T22:37:39;12.23;;;11.00;;
18931;SDS011;9598;50.954;3.112;2023-06-24T22:42:41;11.88;;;10.88;;
18931;SDS011;9598;50.954;3.112;2023-06-24T22:47:45;13.07;;;11.88;;
18931;SDS011;9598;50.954;3.112;2023-06-24T22:52:47;13.00;;;11.80;;
18931;SDS011;9598;50.954;3.112;2023-06-24T22:57:49;14.05;;;12.65;;
18931;SDS011;9598;50.954;3.112;2023-06-24T23:02:52;13.48;;;12.27;;
18931;SDS011;9598;50.954;3.112;2023-06-24T23:07:55;14.15;;;12.65;;
18931;SDS011;9598;50.954;3.112;2023-06-24T23:12:57;14.88;;;13.35;;
18931;SDS011;9598;50.954;3.112;2023-06-24T23:18:02;14.73;;;13.32;;
18931;SDS011;9598;50.954;3.112;2023-06-24T23:23:04;13.73;;;12.48;;
18931;SDS011;9598;50.954;3.112;2023-06-24T23:28:07;16.33;;;14.82;;
18931;SDS011;9598;50.954;3.112;2023-06-24T23:33:16;17.02;;;15.32;;
18931;SDS011;9598;50.954;3.112;2023-06-24T23:38:19;17.02;;;15.43;;
18931;SDS011;9598;50.954;3.112;2023-06-24T23:43:22;16.45;;;14.85;;
18931;SDS011;9598;50.954;3.112;2023-06-24T23:48:26;17.38;;;15.65;;
18931;SDS011;9598;50.954;3.112;2023-06-24T23:53:28;20.17;;;16.23;;
18931;SDS011;9598;50.954;3.112;2023-06-24T23:58:30;19.83;;;17.85;;
